sensor_id;sensor_type;location;lat;lon;timestamp;temperature;humidity
23540;DHT22;11947;50.810;4.394;2023-07-20T00:01:04;17.80;99.90
23540;DHT22;11947;50.810;4.394;2023-07-20T00:03:29;17.80;99.90
23540;DHT22;11947;50.810;4.394;2023-07-20T00:05:55;17.80;99.90
23540;DHT22;11947;50.810;4.394;2023-07-20T00:08:21;17.80;99.90
23540;DHT22;11947;50.810;4.394;2023-07-20T00:10:46;17.80;99.90
23540;DHT22;11947;50.810;4.394;2023-07-20T00:13:12;17.70;99.90
23540;DHT22;11947;50.810;4.394;2023-07-20T00:15:38;17.80;99.90
23540;DHT22;11947;50.810;4.394;2023-07-20T00:18:04;17.80;99.90
23540;DHT22;11947;50.810;4.394;2023-07-20T00:20:30;17.90;99.90
23540;DHT22;11947;50.810;4.394;2023-07-20T00:22:56;17.80;99.90
23540;DHT22;11947;50.810;4.394;2023-07-20T00:25:23;17.80;99.90
23540;DHT22;11947;50.810;4.394;2023-07-20T00:27:49;17.70;99.90
23540;DHT22;11947;50.810;4.394;2023-07-20T00:30:15;17.80;99.90
23540;DHT22;11947;50.810;4.394;2023-07-20T00:32:42;17.80;99.90
23540;DHT22;11947;50.810;4.394;2023-07-20T00:35:08;17.90;99.90
23540;DHT22;11947;50.810;4.394;2023-07-20T00:37:33;17.90;99.90
23540;DHT22;11947;50.810;4.394;2023-07-20T00:39:59;17.80;99.90
23540;DHT22;11947;50.810;4.394;2023-07-20T00:42:24;17.90;99.90
23540;DHT22;11947;50.810;4.394;2023-07-20T00:44:50;17.90;99.90
23540;DHT22;11947;50.810;4.394;2023-07-20T00:47:16;17.80;99.90
23540;DHT22;11947;50.810;4.394;2023-07-20T00:49:42;17.80;99.90
23540;DHT22;11947;50.810;4.394;2023-07-20T00:52:10;17.80;99.90
23540;DHT22;11947;50.810;4.394;2023-07-20T00:54:38;17.70;99.90
23540;DHT22;11947;50.810;4.394;2023-07-20T00:57:04;17.70;99.90
23540;DHT22;11947;50.810;4.394;2023-07-20T00:59:32;17.70;99.90
23540;DHT22;11947;50.810;4.394;2023-07-20T01:01:58;17.70;99.90
23540;DHT22;11947;50.810;4.394;2023-07-20T01:04:23;17.70;99.90
23540;DHT22;11947;50.810;4.394;2023-07-20T01:07:01;17.70;99.90
23540;DHT22;11947;50.810;4.394;2023-07-20T01:09:34;17.70;99.90
23540;DHT22;11947;50.810;4.394;2023-07-20T01:12:12;17.80;99.90
23540;DHT22;11947;50.810;4.394;2023-07-20T01:14:40;17.70;99.90
23540;DHT22;11947;50.810;4.394;2023-07-20T01:17:05;17.60;99.90
23540;DHT22;11947;50.810;4.394;2023-07-20T01:19:31;17.60;99.90
23540;DHT22;11947;50.810;4.394;2023-07-20T01:33:09;17.80;99.90
23540;DHT22;11947;50.810;4.394;2023-07-20T01:35:38;17.80;99.90
23540;DHT22;11947;50.810;4.394;2023-07-20T01:38:06;17.80;99.90
23540;DHT22;11947;50.810;4.394;2023-07-20T01:40:32;17.80;99.90
23540;DHT22;11947;50.810;4.394;2023-07-20T01:42:58;17.80;99.90
23540;DHT22;11947;50.810;4.394;2023-07-20T01:45:24;17.80;99.90
23540;DHT22;11947;50.810;4.394;2023-07-20T01:47:49;17.90;99.90
23540;DHT22;11947;50.810;4.394;2023-07-20T01:50:15;17.90;99.90
23540;DHT22;11947;50.810;4.394;2023-07-20T01:52:41;17.90;99.90
23540;DHT22;11947;50.810;4.394;2023-07-20T01:55:06;17.90;99.90
23540;DHT22;11947;50.810;4.394;2023-07-20T01:57:32;17.90;99.90
23540;DHT22;11947;50.810;4.394;2023-07-20T01:59:58;17.80;99.90
23540;DHT22;11947;50.810;4.394;2023-07-20T02:02:27;17.80;99.90
23540;DHT22;11947;50.810;4.394;2023-07-20T02:04:53;17.70;99.90
23540;DHT22;11947;50.810;4.394;2023-07-20T02:07:19;17.70;99.90
23540;DHT22;11947;50.810;4.394;2023-07-20T02:09:44;17.80;99.90
23540;DHT22;11947;50.810;4.394;2023-07-20T02:12:10;17.80;99.90
23540;DHT22;11947;50.810;4.394;2023-07-20T02:14:36;17.80;99.90
23540;DHT22;11947;50.810;4.394;2023-07-20T02:17:01;17.80;99.90
23540;DHT22;11947;50.810;4.394;2023-07-20T02:19:28;17.80;99.90
23540;DHT22;11947;50.810;4.394;2023-07-20T02:21:53;17.70;99.90
23540;DHT22;11947;50.810;4.394;2023-07-20T02:24:19;17.70;99.90
23540;DHT22;11947;50.810;4.394;2023-07-20T02:26:44;17.70;99.90
23540;DHT22;11947;50.810;4.394;2023-07-20T02:29:10;17.70;99.90
23540;DHT22;11947;50.810;4.394;2023-07-20T02:31:39;17.70;99.90
23540;DHT22;11947;50.810;4.394;2023-07-20T02:34:05;17.70;99.90
23540;DHT22;11947;50.810;4.394;2023-07-20T02:36:32;17.80;99.90
23540;DHT22;11947;50.810;4.394;2023-07-20T02:39:00;17.70;99.90
23540;DHT22;11947;50.810;4.394;2023-07-20T02:41:27;17.70;99.90
23540;DHT22;11947;50.810;4.394;2023-07-20T02:43:53;17.60;99.90
23540;DHT22;11947;50.810;4.394;2023-07-20T02:46:18;17.60;99.90
23540;DHT22;11947;50.810;4.394;2023-07-20T02:48:44;17.70;99.90
23540;DHT22;11947;50.810;4.394;2023-07-20T02:51:10;17.70;99.90
23540;DHT22;11947;50.810;4.394;2023-07-20T02:53:37;17.70;99.90
23540;DHT22;11947;50.810;4.394;2023-07-20T02:56:03;17.60;99.90
23540;DHT22;11947;50.810;4.394;2023-07-20T02:58:29;17.60;99.90
23540;DHT22;11947;50.810;4.394;2023-07-20T03:00:55;17.60;99.90
23540;DHT22;11947;50.810;4.394;2023-07-20T03:03:20;17.70;99.90
23540;DHT22;11947;50.810;4.394;2023-07-20T03:05:46;17.70;99.90
23540;DHT22;11947;50.810;4.394;2023-07-20T03:08:11;17.70;99.90
23540;DHT22;11947;50.810;4.394;2023-07-20T03:10:41;17.70;99.90
23540;DHT22;11947;50.810;4.394;2023-07-20T03:13:07;17.70;99.90
23540;DHT22;11947;50.810;4.394;2023-07-20T03:15:33;17.70;99.90
23540;DHT22;11947;50.810;4.394;2023-07-20T03:17:59;17.70;99.90
23540;DHT22;11947;50.810;4.394;2023-07-20T03:20:25;17.70;99.90
23540;DHT22;11947;50.810;4.394;2023-07-20T03:22:51;17.70;99.90
23540;DHT22;11947;50.810;4.394;2023-07-20T03:25:16;17.70;99.90
23540;DHT22;11947;50.810;4.394;2023-07-20T03:27:43;17.80;99.90
23540;DHT22;11947;50.810;4.394;2023-07-20T03:30:08;17.70;99.90
23540;DHT22;11947;50.810;4.394;2023-07-20T03:32:35;17.70;99.90
23540;DHT22;11947;50.810;4.394;2023-07-20T03:35:01;17.80;99.90
23540;DHT22;11947;50.810;4.394;2023-07-20T03:37:26;17.90;99.90
23540;DHT22;11947;50.810;4.394;2023-07-20T03:39:52;17.80;99.90
23540;DHT22;11947;50.810;4.394;2023-07-20T03:42:18;17.80;99.90
23540;DHT22;11947;50.810;4.394;2023-07-20T03:44:43;17.90;99.90
23540;DHT22;11947;50.810;4.394;2023-07-20T03:47:09;18.10;99.90
23540;DHT22;11947;50.810;4.394;2023-07-20T03:49:35;18.00;99.90
23540;DHT22;11947;50.810;4.394;2023-07-20T03:52:01;18.00;99.90
23540;DHT22;11947;50.810;4.394;2023-07-20T03:54:28;17.90;99.90
23540;DHT22;11947;50.810;4.394;2023-07-20T03:56:54;17.90;99.90
23540;DHT22;11947;50.810;4.394;2023-07-20T03:59:23;17.90;99.90
23540;DHT22;11947;50.810;4.394;2023-07-20T04:01:48;18.00;99.90
23540;DHT22;11947;50.810;4.394;2023-07-20T04:04:16;18.00;99.90
23540;DHT22;11947;50.810;4.394;2023-07-20T04:06:41;18.00;99.90
23540;DHT22;11947;50.810;4.394;2023-07-20T04:09:10;18.00;99.90
23540;DHT22;11947;50.810;4.394;2023-07-20T04:11:36;18.00;99.90
23540;DHT22;11947;50.810;4.394;2023-07-20T04:14:02;18.00;99.90
23540;DHT22;11947;50.810;4.394;2023-07-20T04:16:28;18.10;99.90
23540;DHT22;11947;50.810;4.394;2023-07-20T04:18:56;18.00;99.90
23540;DHT22;11947;50.810;4.394;2023-07-20T04:21:23;18.00;99.90
23540;DHT22;11947;50.810;4.394;2023-07-20T04:23:48;18.00;99.90
23540;DHT22;11947;50.810;4.394;2023-07-20T04:26:14;18.00;99.90
23540;DHT22;11947;50.810;4.394;2023-07-20T04:28:40;18.00;99.90
23540;DHT22;11947;50.810;4.394;2023-07-20T04:31:15;18.00;99.90
23540;DHT22;11947;50.810;4.394;2023-07-20T04:33:41;18.00;99.90
23540;DHT22;11947;50.810;4.394;2023-07-20T04:36:07;17.90;99.90
23540;DHT22;11947;50.810;4.394;2023-07-20T04:38:33;18.00;99.90
23540;DHT22;11947;50.810;4.394;2023-07-20T04:40:58;18.00;99.90
23540;DHT22;11947;50.810;4.394;2023-07-20T04:43:24;18.00;99.90
23540;DHT22;11947;50.810;4.394;2023-07-20T04:45:50;18.00;99.90
23540;DHT22;11947;50.810;4.394;2023-07-20T04:48:16;18.10;99.90
23540;DHT22;11947;50.810;4.394;2023-07-20T04:50:44;18.10;99.90
23540;DHT22;11947;50.810;4.394;2023-07-20T04:53:11;18.10;99.90
23540;DHT22;11947;50.810;4.394;2023-07-20T04:55:40;18.00;99.90
23540;DHT22;11947;50.810;4.394;2023-07-20T04:58:12;18.20;99.90
23540;DHT22;11947;50.810;4.394;2023-07-20T05:00:38;18.30;99.90
23540;DHT22;11947;50.810;4.394;2023-07-20T05:03:04;18.40;99.90
23540;DHT22;11947;50.810;4.394;2023-07-20T05:05:31;18.40;99.90
23540;DHT22;11947;50.810;4.394;2023-07-20T05:07:57;18.30;99.90
23540;DHT22;11947;50.810;4.394;2023-07-20T05:10:25;18.50;99.90
23540;DHT22;11947;50.810;4.394;2023-07-20T05:12:51;18.50;99.90
23540;DHT22;11947;50.810;4.394;2023-07-20T05:15:17;18.50;99.90
23540;DHT22;11947;50.810;4.394;2023-07-20T05:17:42;18.50;99.90
23540;DHT22;11947;50.810;4.394;2023-07-20T05:20:08;18.50;99.90
23540;DHT22;11947;50.810;4.394;2023-07-20T05:22:38;18.50;99.90
23540;DHT22;11947;50.810;4.394;2023-07-20T05:25:08;18.60;99.90
23540;DHT22;11947;50.810;4.394;2023-07-20T05:27:37;18.60;99.90
23540;DHT22;11947;50.810;4.394;2023-07-20T05:30:04;18.50;99.90
23540;DHT22;11947;50.810;4.394;2023-07-20T05:32:30;18.60;99.90
23540;DHT22;11947;50.810;4.394;2023-07-20T05:34:55;18.50;99.90
23540;DHT22;11947;50.810;4.394;2023-07-20T05:37:21;18.50;99.90
23540;DHT22;11947;50.810;4.394;2023-07-20T05:39:47;18.50;99.90
23540;DHT22;11947;50.810;4.394;2023-07-20T05:42:13;18.50;99.90
23540;DHT22;11947;50.810;4.394;2023-07-20T05:44:39;18.60;99.90
23540;DHT22;11947;50.810;4.394;2023-07-20T05:47:05;18.60;99.90
23540;DHT22;11947;50.810;4.394;2023-07-20T05:49:31;18.60;99.90
23540;DHT22;11947;50.810;4.394;2023-07-20T05:51:57;18.70;99.90
23540;DHT22;11947;50.810;4.394;2023-07-20T05:54:24;18.70;99.90
23540;DHT22;11947;50.810;4.394;2023-07-20T05:56:50;18.60;99.90
23540;DHT22;11947;50.810;4.394;2023-07-20T05:59:16;18.70;99.90
23540;DHT22;11947;50.810;4.394;2023-07-20T06:01:42;18.60;99.90
23540;DHT22;11947;50.810;4.394;2023-07-20T06:04:08;18.70;99.90
23540;DHT22;11947;50.810;4.394;2023-07-20T06:06:34;18.70;99.90
23540;DHT22;11947;50.810;4.394;2023-07-20T06:09:00;18.60;99.90
23540;DHT22;11947;50.810;4.394;2023-07-20T06:11:29;18.60;99.90
23540;DHT22;11947;50.810;4.394;2023-07-20T06:13:56;18.50;99.90
23540;DHT22;11947;50.810;4.394;2023-07-20T06:16:22;18.50;99.90
23540;DHT22;11947;50.810;4.394;2023-07-20T06:18:47;18.60;99.90
23540;DHT22;11947;50.810;4.394;2023-07-20T06:21:13;18.70;99.90
23540;DHT22;11947;50.810;4.394;2023-07-20T06:23:39;18.80;99.90
23540;DHT22;11947;50.810;4.394;2023-07-20T06:26:06;18.80;99.90
23540;DHT22;11947;50.810;4.394;2023-07-20T06:28:32;18.80;99.90
23540;DHT22;11947;50.810;4.394;2023-07-20T06:31:02;18.90;99.90
23540;DHT22;11947;50.810;4.394;2023-07-20T06:33:28;18.90;99.90
23540;DHT22;11947;50.810;4.394;2023-07-20T06:38:19;18.90;99.90
23540;DHT22;11947;50.810;4.394;2023-07-20T06:40:48;19.10;99.90
23540;DHT22;11947;50.810;4.394;2023-07-20T06:43:14;19.20;99.90
23540;DHT22;11947;50.810;4.394;2023-07-20T06:45:41;19.30;99.90
23540;DHT22;11947;50.810;4.394;2023-07-20T06:48:10;19.30;99.90
23540;DHT22;11947;50.810;4.394;2023-07-20T06:53:17;19.20;99.90
23540;DHT22;11947;50.810;4.394;2023-07-20T06:55:49;19.30;99.90
23540;DHT22;11947;50.810;4.394;2023-07-20T06:58:18;19.30;99.90
23540;DHT22;11947;50.810;4.394;2023-07-20T07:00:49;19.40;99.90
23540;DHT22;11947;50.810;4.394;2023-07-20T07:03:15;19.50;99.90
23540;DHT22;11947;50.810;4.394;2023-07-20T07:08:27;19.30;99.90
23540;DHT22;11947;50.810;4.394;2023-07-20T07:10:55;19.30;99.90
23540;DHT22;11947;50.810;4.394;2023-07-20T07:13:25;19.30;99.90
23540;DHT22;11947;50.810;4.394;2023-07-20T07:15:54;19.50;99.90
23540;DHT22;11947;50.810;4.394;2023-07-20T07:18:20;19.50;99.90
23540;DHT22;11947;50.810;4.394;2023-07-20T07:21:04;19.60;99.90
23540;DHT22;11947;50.810;4.394;2023-07-20T07:23:33;20.10;99.90
23540;DHT22;11947;50.810;4.394;2023-07-20T07:26:01;20.30;99.90
23540;DHT22;11947;50.810;4.394;2023-07-20T07:28:29;20.40;99.90
23540;DHT22;11947;50.810;4.394;2023-07-20T07:30:58;20.70;99.90
23540;DHT22;11947;50.810;4.394;2023-07-20T07:33:23;20.90;99.90
23540;DHT22;11947;50.810;4.394;2023-07-20T07:35:50;21.10;99.90
23540;DHT22;11947;50.810;4.394;2023-07-20T07:40:44;21.30;99.90
23540;DHT22;11947;50.810;4.394;2023-07-20T07:43:16;21.30;99.90
23540;DHT22;11947;50.810;4.394;2023-07-20T07:45:42;21.30;99.90
23540;DHT22;11947;50.810;4.394;2023-07-20T07:48:08;21.40;99.90
23540;DHT22;11947;50.810;4.394;2023-07-20T07:50:36;21.40;99.90
23540;DHT22;11947;50.810;4.394;2023-07-20T07:53:02;21.50;99.90
23540;DHT22;11947;50.810;4.394;2023-07-20T07:55:28;21.60;99.90
23540;DHT22;11947;50.810;4.394;2023-07-20T07:57:54;21.70;99.90
23540;DHT22;11947;50.810;4.394;2023-07-20T08:00:22;21.90;99.90
23540;DHT22;11947;50.810;4.394;2023-07-20T08:02:51;21.90;99.90
23540;DHT22;11947;50.810;4.394;2023-07-20T08:05:50;22.00;99.90
23540;DHT22;11947;50.810;4.394;2023-07-20T08:11:24;22.90;99.90
23540;DHT22;11947;50.810;4.394;2023-07-20T08:14:09;23.10;99.90
23540;DHT22;11947;50.810;4.394;2023-07-20T08:16:37;23.00;99.90
23540;DHT22;11947;50.810;4.394;2023-07-20T08:19:03;22.80;99.90
23540;DHT22;11947;50.810;4.394;2023-07-20T08:21:30;22.60;99.90
23540;DHT22;11947;50.810;4.394;2023-07-20T08:23:56;22.70;99.90
23540;DHT22;11947;50.810;4.394;2023-07-20T08:26:27;22.60;99.90
23540;DHT22;11947;50.810;4.394;2023-07-20T08:28:58;22.90;99.90
23540;DHT22;11947;50.810;4.394;2023-07-20T08:31:34;23.30;99.90
23540;DHT22;11947;50.810;4.394;2023-07-20T08:34:06;23.60;99.90
23540;DHT22;11947;50.810;4.394;2023-07-20T08:36:32;23.60;99.90
23540;DHT22;11947;50.810;4.394;2023-07-20T08:39:04;23.30;99.90
23540;DHT22;11947;50.810;4.394;2023-07-20T09:02:24;23.90;99.90
23540;DHT22;11947;50.810;4.394;2023-07-20T09:05:02;23.80;99.90
23540;DHT22;11947;50.810;4.394;2023-07-20T09:07:51;23.60;99.90
23540;DHT22;11947;50.810;4.394;2023-07-20T09:10:25;23.80;99.90
23540;DHT22;11947;50.810;4.394;2023-07-20T09:12:51;24.00;99.90
23540;DHT22;11947;50.810;4.394;2023-07-20T09:19:03;24.70;99.90
23540;DHT22;11947;50.810;4.394;2023-07-20T09:22:12;25.20;99.90
23540;DHT22;11947;50.810;4.394;2023-07-20T09:24:38;25.40;99.90
23540;DHT22;11947;50.810;4.394;2023-07-20T09:27:04;25.60;99.90
23540;DHT22;11947;50.810;4.394;2023-07-20T09:29:50;25.50;99.90
23540;DHT22;11947;50.810;4.394;2023-07-20T09:32:21;25.50;99.90
23540;DHT22;11947;50.810;4.394;2023-07-20T09:34:49;25.90;99.90
23540;DHT22;11947;50.810;4.394;2023-07-20T09:39:52;26.50;99.90
23540;DHT22;11947;50.810;4.394;2023-07-20T09:42:19;27.10;99.90
23540;DHT22;11947;50.810;4.394;2023-07-20T09:44:54;27.50;99.90
23540;DHT22;11947;50.810;4.394;2023-07-20T09:47:30;27.60;99.90
23540;DHT22;11947;50.810;4.394;2023-07-20T09:50:00;27.90;99.90
23540;DHT22;11947;50.810;4.394;2023-07-20T09:52:26;27.80;99.90
23540;DHT22;11947;50.810;4.394;2023-07-20T09:54:52;27.90;99.90
23540;DHT22;11947;50.810;4.394;2023-07-20T09:57:21;27.40;99.90
23540;DHT22;11947;50.810;4.394;2023-07-20T10:03:04;27.40;99.90
23540;DHT22;11947;50.810;4.394;2023-07-20T10:26:44;30.90;98.90
23540;DHT22;11947;50.810;4.394;2023-07-20T10:29:34;30.50;98.30
23540;DHT22;11947;50.810;4.394;2023-07-20T10:34:39;28.80;99.90
23540;DHT22;11947;50.810;4.394;2023-07-20T10:37:38;28.60;99.90
23540;DHT22;11947;50.810;4.394;2023-07-20T10:40:30;29.70;99.90
23540;DHT22;11947;50.810;4.394;2023-07-20T12:11:38;33.60;81.10
23540;DHT22;11947;50.810;4.394;2023-07-20T12:14:11;32.50;80.60
23540;DHT22;11947;50.810;4.394;2023-07-20T12:16:51;30.50;83.10
23540;DHT22;11947;50.810;4.394;2023-07-20T12:19:31;30.40;89.40
23540;DHT22;11947;50.810;4.394;2023-07-20T12:21:59;30.30;86.10
23540;DHT22;11947;50.810;4.394;2023-07-20T12:24:30;30.30;86.90
23540;DHT22;11947;50.810;4.394;2023-07-20T12:32:34;30.50;90.10
23540;DHT22;11947;50.810;4.394;2023-07-20T12:35:33;32.10;87.00
23540;DHT22;11947;50.810;4.394;2023-07-20T12:39:02;35.20;78.90
23540;DHT22;11947;50.810;4.394;2023-07-20T12:41:30;36.00;75.20
23540;DHT22;11947;50.810;4.394;2023-07-20T12:44:16;35.10;77.50
23540;DHT22;11947;50.810;4.394;2023-07-20T12:46:56;34.50;77.00
23540;DHT22;11947;50.810;4.394;2023-07-20T12:49:37;33.60;82.20
23540;DHT22;11947;50.810;4.394;2023-07-20T12:52:03;32.70;83.60
23540;DHT22;11947;50.810;4.394;2023-07-20T12:54:49;31.10;84.70
23540;DHT22;11947;50.810;4.394;2023-07-20T12:57:45;30.10;90.00
23540;DHT22;11947;50.810;4.394;2023-07-20T13:02:51;28.50;91.50
23540;DHT22;11947;50.810;4.394;2023-07-20T13:06:00;27.90;91.70
23540;DHT22;11947;50.810;4.394;2023-07-20T13:14:50;26.10;94.60
23540;DHT22;11947;50.810;4.394;2023-07-20T13:17:32;25.80;94.80
23540;DHT22;11947;50.810;4.394;2023-07-20T13:20:06;25.40;96.30
23540;DHT22;11947;50.810;4.394;2023-07-20T13:22:34;25.20;97.20
23540;DHT22;11947;50.810;4.394;2023-07-20T13:25:02;24.70;97.60
23540;DHT22;11947;50.810;4.394;2023-07-20T13:30:51;24.70;98.30
23540;DHT22;11947;50.810;4.394;2023-07-20T13:33:25;24.70;99.70
23540;DHT22;11947;50.810;4.394;2023-07-20T13:36:00;24.70;99.50
23540;DHT22;11947;50.810;4.394;2023-07-20T13:38:36;24.80;99.90
23540;DHT22;11947;50.810;4.394;2023-07-20T13:44:59;25.30;99.90
23540;DHT22;11947;50.810;4.394;2023-07-20T14:02:44;27.10;99.90
23540;DHT22;11947;50.810;4.394;2023-07-20T14:13:30;26.60;99.90
23540;DHT22;11947;50.810;4.394;2023-07-20T14:15:56;28.30;99.90
23540;DHT22;11947;50.810;4.394;2023-07-20T14:18:36;29.20;96.90
23540;DHT22;11947;50.810;4.394;2023-07-20T14:26:34;30.70;93.80
23540;DHT22;11947;50.810;4.394;2023-07-20T14:29:15;30.50;95.30
23540;DHT22;11947;50.810;4.394;2023-07-20T14:53:07;28.60;96.90
23540;DHT22;11947;50.810;4.394;2023-07-20T14:56:01;28.00;95.80
23540;DHT22;11947;50.810;4.394;2023-07-20T14:58:27;27.80;97.00
23540;DHT22;11947;50.810;4.394;2023-07-20T15:00:53;27.30;95.60
23540;DHT22;11947;50.810;4.394;2023-07-20T15:03:24;27.30;97.90
23540;DHT22;11947;50.810;4.394;2023-07-20T15:05:55;27.20;96.70
23540;DHT22;11947;50.810;4.394;2023-07-20T15:08:28;26.90;96.20
23540;DHT22;11947;50.810;4.394;2023-07-20T15:11:11;26.50;96.40
23540;DHT22;11947;50.810;4.394;2023-07-20T15:13:43;26.30;96.10
23540;DHT22;11947;50.810;4.394;2023-07-20T15:16:15;26.20;98.80
23540;DHT22;11947;50.810;4.394;2023-07-20T15:21:45;25.60;99.00
23540;DHT22;11947;50.810;4.394;2023-07-20T15:24:18;25.30;97.90
23540;DHT22;11947;50.810;4.394;2023-07-20T15:26:43;25.00;99.90
23540;DHT22;11947;50.810;4.394;2023-07-20T15:29:12;24.90;99.60
23540;DHT22;11947;50.810;4.394;2023-07-20T15:32:01;24.70;99.90
23540;DHT22;11947;50.810;4.394;2023-07-20T15:34:27;24.60;99.90
23540;DHT22;11947;50.810;4.394;2023-07-20T15:36:58;24.10;99.90
23540;DHT22;11947;50.810;4.394;2023-07-20T15:39:27;23.80;99.90
23540;DHT22;11947;50.810;4.394;2023-07-20T15:41:53;23.70;99.90
23540;DHT22;11947;50.810;4.394;2023-07-20T15:47:24;23.30;99.90
23540;DHT22;11947;50.810;4.394;2023-07-20T15:49:53;23.10;99.90
23540;DHT22;11947;50.810;4.394;2023-07-20T15:52:24;22.70;99.90
23540;DHT22;11947;50.810;4.394;2023-07-20T16:02:21;20.90;99.90
23540;DHT22;11947;50.810;4.394;2023-07-20T16:05:07;20.30;99.90
23540;DHT22;11947;50.810;4.394;2023-07-20T16:15:02;19.10;99.90
23540;DHT22;11947;50.810;4.394;2023-07-20T16:18:14;18.90;99.90
23540;DHT22;11947;50.810;4.394;2023-07-20T17:10:37;18.20;99.90
23540;DHT22;11947;50.810;4.394;2023-07-20T17:13:03;18.30;99.90
23540;DHT22;11947;50.810;4.394;2023-07-20T17:18:05;18.30;99.90
23540;DHT22;11947;50.810;4.394;2023-07-20T17:20:31;18.10;99.90
23540;DHT22;11947;50.810;4.394;2023-07-20T17:23:00;18.20;99.90
23540;DHT22;11947;50.810;4.394;2023-07-20T17:25:27;18.40;99.90
23540;DHT22;11947;50.810;4.394;2023-07-20T17:27:57;18.50;99.90
23540;DHT22;11947;50.810;4.394;2023-07-20T17:30:24;18.60;99.90
23540;DHT22;11947;50.810;4.394;2023-07-20T17:32:50;18.70;99.90
23540;DHT22;11947;50.810;4.394;2023-07-20T17:35:18;18.70;99.90
23540;DHT22;11947;50.810;4.394;2023-07-20T17:37:47;18.50;99.90
23540;DHT22;11947;50.810;4.394;2023-07-20T17:40:13;18.50;99.90
23540;DHT22;11947;50.810;4.394;2023-07-20T17:42:39;18.40;99.90
23540;DHT22;11947;50.810;4.394;2023-07-20T17:45:08;18.20;99.90
23540;DHT22;11947;50.810;4.394;2023-07-20T17:47:36;17.90;99.90
23540;DHT22;11947;50.810;4.394;2023-07-20T17:50:05;18.00;99.90
23540;DHT22;11947;50.810;4.394;2023-07-20T17:52:32;18.00;99.90
23540;DHT22;11947;50.810;4.394;2023-07-20T17:54:58;18.00;99.90
23540;DHT22;11947;50.810;4.394;2023-07-20T17:57:26;18.10;99.90
23540;DHT22;11947;50.810;4.394;2023-07-20T17:59:58;17.90;99.90
23540;DHT22;11947;50.810;4.394;2023-07-20T18:02:44;17.90;99.90
23540;DHT22;11947;50.810;4.394;2023-07-20T18:05:09;17.90;99.90
23540;DHT22;11947;50.810;4.394;2023-07-20T18:07:38;17.90;99.90
23540;DHT22;11947;50.810;4.394;2023-07-20T18:10:06;18.00;99.90
23540;DHT22;11947;50.810;4.394;2023-07-20T18:12:32;18.00;99.90
23540;DHT22;11947;50.810;4.394;2023-07-20T18:14:59;18.00;99.90
23540;DHT22;11947;50.810;4.394;2023-07-20T18:17:36;17.90;99.90
23540;DHT22;11947;50.810;4.394;2023-07-20T18:20:03;18.00;99.90
23540;DHT22;11947;50.810;4.394;2023-07-20T18:22:32;17.90;99.90
23540;DHT22;11947;50.810;4.394;2023-07-20T18:24:59;18.00;99.90
23540;DHT22;11947;50.810;4.394;2023-07-20T18:27:26;18.10;99.90
23540;DHT22;11947;50.810;4.394;2023-07-20T18:29:53;18.20;99.90
23540;DHT22;11947;50.810;4.394;2023-07-20T23:10:02;16.00;99.90
23540;DHT22;11947;50.810;4.394;2023-07-20T23:12:28;16.00;99.90
23540;DHT22;11947;50.810;4.394;2023-07-20T23:14:54;16.10;99.90
23540;DHT22;11947;50.810;4.394;2023-07-20T23:17:22;16.10;99.90
23540;DHT22;11947;50.810;4.394;2023-07-20T23:19:47;16.20;99.90
23540;DHT22;11947;50.810;4.394;2023-07-20T23:22:13;16.30;99.90
23540;DHT22;11947;50.810;4.394;2023-07-20T23:24:41;16.20;99.90
23540;DHT22;11947;50.810;4.394;2023-07-20T23:27:07;16.20;99.90
23540;DHT22;11947;50.810;4.394;2023-07-20T23:29:35;16.30;99.90
23540;DHT22;11947;50.810;4.394;2023-07-20T23:32:01;16.30;99.90
23540;DHT22;11947;50.810;4.394;2023-07-20T23:34:26;16.30;99.90
23540;DHT22;11947;50.810;4.394;2023-07-20T23:36:52;16.20;99.90
23540;DHT22;11947;50.810;4.394;2023-07-20T23:39:18;16.30;99.90
23540;DHT22;11947;50.810;4.394;2023-07-20T23:41:44;16.40;99.90
23540;DHT22;11947;50.810;4.394;2023-07-20T23:44:09;16.40;99.90
23540;DHT22;11947;50.810;4.394;2023-07-20T23:46:35;16.40;99.90
23540;DHT22;11947;50.810;4.394;2023-07-20T23:49:01;16.30;99.90
23540;DHT22;11947;50.810;4.394;2023-07-20T23:51:29;16.20;99.90
23540;DHT22;11947;50.810;4.394;2023-07-20T23:53:54;16.10;99.90
23540;DHT22;11947;50.810;4.394;2023-07-20T23:56:21;16.10;99.90
23540;DHT22;11947;50.810;4.394;2023-07-20T23:58:47;16.10;99.90
